Bliss, New York
Current Conditions -  °F | °C
As of 2:55 PM on Friday 24 Oct 2014 (Local Time) from KOLE Reporting Station
Clear Clear  
Wind Chill: 52°   Ceiling: Unl
Heat Index: 52°   Visibility: 10mi
Dew Point: 32°   Wind: 12mph
Humidity: 47%   Direction: 300°WNW
Pressure: 29.96"   Gusts: 17mph
Location:  42.58°N, 78.25°W
Report Text: KOLE 241855Z AUTO 30010G15KT 10SM CLR 11/00 A2996 RMK AO2
Loading
Personal Weather Stations






























Interactive Weather Map
Tropical Storm Tracking
New forecast layout! Learn more

10-Day Weather Forecast

Advertisements
Track Severe Weather on mobile